sensor_id;sensor_type;location;lat;lon;timestamp;pressure;altitude;pressure_sealevel;temperature;humidity
64628;BME280;68467;50.960;0.314;2023-03-23T00:01:15;98285.54;;;6.60;100.00
64628;BME280;68467;50.960;0.314;2023-03-23T00:03:43;98303.13;;;6.62;100.00
64628;BME280;68467;50.960;0.314;2023-03-23T00:06:10;98281.38;;;6.61;100.00
64628;BME280;68467;50.960;0.314;2023-03-23T00:08:39;98289.52;;;6.45;100.00
64628;BME280;68467;50.960;0.314;2023-03-23T00:11:06;98280.51;;;6.35;100.00
64628;BME280;68467;50.960;0.314;2023-03-23T00:13:34;98260.22;;;6.60;100.00
64628;BME280;68467;50.960;0.314;2023-03-23T00:16:01;98274.89;;;6.26;100.00
64628;BME280;68467;50.960;0.314;2023-03-23T00:18:28;98275.12;;;6.20;100.00
64628;BME280;68467;50.960;0.314;2023-03-23T00:20:56;98276.72;;;6.39;100.00
64628;BME280;68467;50.960;0.314;2023-03-23T00:23:25;98284.58;;;6.29;100.00
64628;BME280;68467;50.960;0.314;2023-03-23T00:25:54;98279.60;;;6.38;100.00
64628;BME280;68467;50.960;0.314;2023-03-23T00:28:23;98280.89;;;6.38;100.00
64628;BME280;68467;50.960;0.314;2023-03-23T00:30:55;98284.80;;;6.37;100.00
64628;BME280;68467;50.960;0.314;2023-03-23T00:33:23;98280.91;;;6.58;100.00
64628;BME280;68467;50.960;0.314;2023-03-23T00:35:50;98294.11;;;6.31;100.00
64628;BME280;68467;50.960;0.314;2023-03-23T00:38:18;98273.86;;;6.50;100.00
64628;BME280;68467;50.960;0.314;2023-03-23T00:40:45;98289.44;;;6.34;100.00
64628;BME280;68467;50.960;0.314;2023-03-23T00:43:13;98299.64;;;6.37;100.00
64628;BME280;68467;50.960;0.314;2023-03-23T00:45:40;98306.01;;;6.40;100.00
64628;BME280;68467;50.960;0.314;2023-03-23T00:48:07;98300.17;;;6.02;100.00
64628;BME280;68467;50.960;0.314;2023-03-23T00:50:35;98304.85;;;6.24;100.00
64628;BME280;68467;50.960;0.314;2023-03-23T00:53:02;98294.21;;;6.51;100.00
64628;BME280;68467;50.960;0.314;2023-03-23T00:55:29;98285.78;;;6.67;100.00
64628;BME280;68467;50.960;0.314;2023-03-23T00:57:56;98305.13;;;6.49;100.00
64628;BME280;68467;50.960;0.314;2023-03-23T01:00:23;98301.38;;;6.65;100.00
64628;BME280;68467;50.960;0.314;2023-03-23T01:02:50;98300.60;;;6.59;100.00
64628;BME280;68467;50.960;0.314;2023-03-23T01:05:19;98306.38;;;6.78;100.00
64628;BME280;68467;50.960;0.314;2023-03-23T01:07:47;98306.03;;;6.51;100.00
64628;BME280;68467;50.960;0.314;2023-03-23T01:10:15;98314.85;;;6.59;100.00
64628;BME280;68467;50.960;0.314;2023-03-23T01:12:43;98310.53;;;6.47;100.00
64628;BME280;68467;50.960;0.314;2023-03-23T01:15:15;98319.82;;;6.62;100.00
64628;BME280;68467;50.960;0.314;2023-03-23T01:17:43;98321.21;;;6.41;100.00
64628;BME280;68467;50.960;0.314;2023-03-23T01:20:12;98319.39;;;6.23;100.00
64628;BME280;68467;50.960;0.314;2023-03-23T01:22:40;98322.96;;;6.92;100.00
64628;BME280;68467;50.960;0.314;2023-03-23T01:25:08;98317.79;;;6.86;100.00
64628;BME280;68467;50.960;0.314;2023-03-23T01:27:36;98307.61;;;6.52;100.00
64628;BME280;68467;50.960;0.314;2023-03-23T01:30:05;98310.84;;;6.69;100.00
64628;BME280;68467;50.960;0.314;2023-03-23T01:32:33;98329.27;;;6.49;100.00
64628;BME280;68467;50.960;0.314;2023-03-23T01:35:00;98331.94;;;6.05;100.00
64628;BME280;68467;50.960;0.314;2023-03-23T01:37:27;98345.02;;;6.11;100.00
64628;BME280;68467;50.960;0.314;2023-03-23T01:39:54;98336.70;;;6.06;100.00
64628;BME280;68467;50.960;0.314;2023-03-23T01:42:23;98329.59;;;6.18;100.00
64628;BME280;68467;50.960;0.314;2023-03-23T01:45:56;98326.95;;;5.99;100.00
64628;BME280;68467;50.960;0.314;2023-03-23T01:48:26;98325.08;;;5.94;100.00
64628;BME280;68467;50.960;0.314;2023-03-23T01:50:57;98337.42;;;6.16;100.00
64628;BME280;68467;50.960;0.314;2023-03-23T01:53:30;98339.79;;;5.72;100.00
64628;BME280;68467;50.960;0.314;2023-03-23T01:56:00;98351.32;;;5.70;100.00
64628;BME280;68467;50.960;0.314;2023-03-23T01:58:32;98337.75;;;5.37;100.00
64628;BME280;68467;50.960;0.314;2023-03-23T02:01:03;98332.84;;;5.06;100.00
64628;BME280;68467;50.960;0.314;2023-03-23T02:03:31;98338.84;;;5.34;100.00
64628;BME280;68467;50.960;0.314;2023-03-23T02:05:59;98347.88;;;5.37;100.00
64628;BME280;68467;50.960;0.314;2023-03-23T02:08:27;98335.82;;;5.67;100.00
64628;BME280;68467;50.960;0.314;2023-03-23T02:10:55;98330.82;;;5.91;100.00
64628;BME280;68467;50.960;0.314;2023-03-23T02:13:22;98341.95;;;6.02;100.00
64628;BME280;68467;50.960;0.314;2023-03-23T02:16:02;98328.54;;;5.84;100.00
64628;BME280;68467;50.960;0.314;2023-03-23T02:18:41;98326.37;;;6.22;100.00
64628;BME280;68467;50.960;0.314;2023-03-23T02:22:28;98329.04;;;6.26;100.00
64628;BME280;68467;50.960;0.314;2023-03-23T02:25:24;98329.75;;;5.79;100.00
64628;BME280;68467;50.960;0.314;2023-03-23T02:28:18;98321.44;;;5.96;100.00
64628;BME280;68467;50.960;0.314;2023-03-23T02:31:00;98332.32;;;6.01;100.00
64628;BME280;68467;50.960;0.314;2023-03-23T02:33:36;98331.51;;;6.04;100.00
64628;BME280;68467;50.960;0.314;2023-03-23T02:36:12;98328.69;;;5.81;100.00
64628;BME280;68467;50.960;0.314;2023-03-23T02:38:46;98321.90;;;6.06;100.00
64628;BME280;68467;50.960;0.314;2023-03-23T02:41:19;98320.77;;;5.94;100.00
64628;BME280;68467;50.960;0.314;2023-03-23T02:43:49;98328.29;;;5.86;100.00
64628;BME280;68467;50.960;0.314;2023-03-23T02:46:18;98316.36;;;5.63;100.00
64628;BME280;68467;50.960;0.314;2023-03-23T02:48:49;98317.11;;;5.84;100.00
64628;BME280;68467;50.960;0.314;2023-03-23T02:51:18;98316.98;;;5.93;100.00
64628;BME280;68467;50.960;0.314;2023-03-23T02:53:49;98321.43;;;5.94;100.00
64628;BME280;68467;50.960;0.314;2023-03-23T02:56:19;98322.64;;;5.91;100.00
64628;BME280;68467;50.960;0.314;2023-03-23T02:58:49;98326.01;;;5.76;100.00
64628;BME280;68467;50.960;0.314;2023-03-23T03:01:51;98326.55;;;6.00;100.00
64628;BME280;68467;50.960;0.314;2023-03-23T03:04:22;98323.87;;;6.10;100.00
64628;BME280;68467;50.960;0.314;2023-03-23T03:07:01;98320.18;;;6.55;100.00
64628;BME280;68467;50.960;0.314;2023-03-23T03:09:39;98322.10;;;6.52;100.00
64628;BME280;68467;50.960;0.314;2023-03-23T03:12:12;98328.41;;;6.05;100.00
64628;BME280;68467;50.960;0.314;2023-03-23T03:14:47;98332.19;;;6.36;100.00
64628;BME280;68467;50.960;0.314;2023-03-23T03:17:22;98342.07;;;5.75;100.00
64628;BME280;68467;50.960;0.314;2023-03-23T03:19:54;98341.09;;;5.81;100.00
64628;BME280;68467;50.960;0.314;2023-03-23T03:22:23;98340.25;;;5.86;100.00
64628;BME280;68467;50.960;0.314;2023-03-23T03:24:52;98352.70;;;6.18;100.00
64628;BME280;68467;50.960;0.314;2023-03-23T03:27:20;98348.87;;;5.79;100.00
64628;BME280;68467;50.960;0.314;2023-03-23T03:29:52;98346.51;;;5.29;100.00
64628;BME280;68467;50.960;0.314;2023-03-23T03:32:22;98351.92;;;5.72;100.00
64628;BME280;68467;50.960;0.314;2023-03-23T03:34:51;98351.58;;;6.11;100.00
64628;BME280;68467;50.960;0.314;2023-03-23T03:37:18;98349.04;;;5.50;100.00
64628;BME280;68467;50.960;0.314;2023-03-23T03:39:45;98354.90;;;5.15;100.00
64628;BME280;68467;50.960;0.314;2023-03-23T03:42:12;98358.01;;;5.75;100.00
64628;BME280;68467;50.960;0.314;2023-03-23T03:44:39;98346.01;;;5.92;100.00
64628;BME280;68467;50.960;0.314;2023-03-23T03:47:06;98354.29;;;5.75;100.00
64628;BME280;68467;50.960;0.314;2023-03-23T03:49:34;98350.03;;;6.22;100.00
64628;BME280;68467;50.960;0.314;2023-03-23T03:52:01;98352.43;;;5.87;100.00
64628;BME280;68467;50.960;0.314;2023-03-23T03:54:28;98357.93;;;5.76;100.00
64628;BME280;68467;50.960;0.314;2023-03-23T03:56:56;98351.71;;;6.32;100.00
64628;BME280;68467;50.960;0.314;2023-03-23T03:59:22;98342.76;;;5.88;100.00
64628;BME280;68467;50.960;0.314;2023-03-23T04:01:50;98353.91;;;5.89;100.00
64628;BME280;68467;50.960;0.314;2023-03-23T04:04:17;98362.51;;;5.70;100.00
64628;BME280;68467;50.960;0.314;2023-03-23T04:06:43;98357.35;;;6.34;100.00
64628;BME280;68467;50.960;0.314;2023-03-23T04:09:10;98353.79;;;5.88;100.00
64628;BME280;68467;50.960;0.314;2023-03-23T04:11:38;98365.44;;;5.52;100.00
64628;BME280;68467;50.960;0.314;2023-03-23T04:14:05;98363.34;;;5.87;100.00
64628;BME280;68467;50.960;0.314;2023-03-23T04:16:32;98358.16;;;5.63;100.00
64628;BME280;68467;50.960;0.314;2023-03-23T04:19:04;98354.23;;;5.98;100.00
64628;BME280;68467;50.960;0.314;2023-03-23T04:21:31;98351.25;;;5.69;100.00
64628;BME280;68467;50.960;0.314;2023-03-23T04:23:58;98352.84;;;6.15;100.00
64628;BME280;68467;50.960;0.314;2023-03-23T04:26:25;98354.96;;;5.31;100.00
64628;BME280;68467;50.960;0.314;2023-03-23T04:28:53;98362.77;;;5.69;100.00
64628;BME280;68467;50.960;0.314;2023-03-23T04:31:19;98360.88;;;5.55;100.00
64628;BME280;68467;50.960;0.314;2023-03-23T04:33:47;98372.85;;;5.27;100.00
64628;BME280;68467;50.960;0.314;2023-03-23T04:36:14;98376.93;;;5.59;100.00
64628;BME280;68467;50.960;0.314;2023-03-23T04:38:41;98378.67;;;5.69;100.00
64628;BME280;68467;50.960;0.314;2023-03-23T04:41:09;98377.23;;;5.18;100.00
64628;BME280;68467;50.960;0.314;2023-03-23T04:43:37;98388.44;;;5.36;100.00
64628;BME280;68467;50.960;0.314;2023-03-23T04:46:04;98388.18;;;5.15;100.00
64628;BME280;68467;50.960;0.314;2023-03-23T04:48:31;98389.64;;;5.52;100.00
64628;BME280;68467;50.960;0.314;2023-03-23T04:51:01;98383.16;;;5.33;100.00
64628;BME280;68467;50.960;0.314;2023-03-23T04:53:27;98386.26;;;4.93;100.00
64628;BME280;68467;50.960;0.314;2023-03-23T04:55:54;98387.51;;;5.42;100.00
64628;BME280;68467;50.960;0.314;2023-03-23T04:58:22;98381.36;;;5.00;100.00
64628;BME280;68467;50.960;0.314;2023-03-23T05:00:49;98389.38;;;5.21;100.00
64628;BME280;68467;50.960;0.314;2023-03-23T05:03:16;98391.58;;;5.27;100.00
64628;BME280;68467;50.960;0.314;2023-03-23T05:05:44;98390.99;;;5.66;100.00
64628;BME280;68467;50.960;0.314;2023-03-23T05:08:11;98391.35;;;5.10;100.00
64628;BME280;68467;50.960;0.314;2023-03-23T05:10:38;98393.74;;;5.19;100.00
64628;BME280;68467;50.960;0.314;2023-03-23T05:13:05;98391.97;;;5.16;100.00
64628;BME280;68467;50.960;0.314;2023-03-23T05:15:33;98393.38;;;5.84;100.00
64628;BME280;68467;50.960;0.314;2023-03-23T05:18:00;98401.85;;;5.74;100.00
64628;BME280;68467;50.960;0.314;2023-03-23T05:20:27;98403.62;;;5.82;100.00
64628;BME280;68467;50.960;0.314;2023-03-23T05:22:55;98404.65;;;5.56;100.00
64628;BME280;68467;50.960;0.314;2023-03-23T05:25:22;98402.00;;;5.26;100.00
64628;BME280;68467;50.960;0.314;2023-03-23T05:27:49;98408.11;;;5.47;100.00
64628;BME280;68467;50.960;0.314;2023-03-23T05:30:16;98408.46;;;5.47;100.00
64628;BME280;68467;50.960;0.314;2023-03-23T05:32:43;98407.89;;;5.39;100.00
64628;BME280;68467;50.960;0.314;2023-03-23T05:35:12;98412.49;;;5.58;100.00
64628;BME280;68467;50.960;0.314;2023-03-23T05:37:39;98411.13;;;5.59;100.00
64628;BME280;68467;50.960;0.314;2023-03-23T05:40:07;98405.59;;;5.70;100.00
64628;BME280;68467;50.960;0.314;2023-03-23T05:42:35;98400.38;;;5.39;100.00
64628;BME280;68467;50.960;0.314;2023-03-23T05:45:03;98389.79;;;5.58;100.00
64628;BME280;68467;50.960;0.314;2023-03-23T05:47:30;98390.08;;;5.68;100.00
64628;BME280;68467;50.960;0.314;2023-03-23T05:49:58;98389.52;;;5.42;100.00
64628;BME280;68467;50.960;0.314;2023-03-23T05:52:25;98385.81;;;5.42;100.00
64628;BME280;68467;50.960;0.314;2023-03-23T05:54:53;98379.83;;;5.23;100.00
64628;BME280;68467;50.960;0.314;2023-03-23T05:57:20;98381.30;;;5.33;100.00
64628;BME280;68467;50.960;0.314;2023-03-23T05:59:48;98371.49;;;5.23;100.00
64628;BME280;68467;50.960;0.314;2023-03-23T06:02:16;98379.79;;;5.04;100.00
64628;BME280;68467;50.960;0.314;2023-03-23T06:04:43;98383.30;;;5.30;100.00
64628;BME280;68467;50.960;0.314;2023-03-23T06:07:11;98384.01;;;5.27;100.00
64628;BME280;68467;50.960;0.314;2023-03-23T06:09:38;98388.20;;;5.14;100.00
64628;BME280;68467;50.960;0.314;2023-03-23T06:12:07;98392.35;;;4.97;100.00
64628;BME280;68467;50.960;0.314;2023-03-23T06:14:34;98388.10;;;5.19;100.00
64628;BME280;68467;50.960;0.314;2023-03-23T06:17:01;98394.85;;;4.88;100.00
64628;BME280;68467;50.960;0.314;2023-03-23T06:19:28;98395.04;;;5.51;100.00
64628;BME280;68467;50.960;0.314;2023-03-23T06:21:55;98403.24;;;5.66;100.00
64628;BME280;68467;50.960;0.314;2023-03-23T06:24:23;98400.09;;;5.31;100.00
64628;BME280;68467;50.960;0.314;2023-03-23T06:26:50;98395.19;;;5.75;100.00
64628;BME280;68467;50.960;0.314;2023-03-23T06:29:17;98401.35;;;5.65;100.00
64628;BME280;68467;50.960;0.314;2023-03-23T06:31:46;98409.07;;;5.47;100.00
64628;BME280;68467;50.960;0.314;2023-03-23T06:34:15;98412.96;;;5.68;100.00
64628;BME280;68467;50.960;0.314;2023-03-23T06:36:42;98422.56;;;6.07;100.00
64628;BME280;68467;50.960;0.314;2023-03-23T06:39:09;98421.10;;;5.82;100.00
64628;BME280;68467;50.960;0.314;2023-03-23T06:41:37;98427.46;;;6.19;100.00
64628;BME280;68467;50.960;0.314;2023-03-23T06:44:03;98422.45;;;6.02;100.00
64628;BME280;68467;50.960;0.314;2023-03-23T06:46:31;98416.81;;;6.04;100.00
64628;BME280;68467;50.960;0.314;2023-03-23T06:48:58;98418.98;;;5.95;100.00
64628;BME280;68467;50.960;0.314;2023-03-23T06:51:25;98404.32;;;5.96;100.00
64628;BME280;68467;50.960;0.314;2023-03-23T06:53:51;98406.56;;;5.71;100.00
64628;BME280;68467;50.960;0.314;2023-03-23T06:56:19;98402.63;;;5.65;100.00
64628;BME280;68467;50.960;0.314;2023-03-23T06:58:46;98413.77;;;5.59;100.00
64628;BME280;68467;50.960;0.314;2023-03-23T07:01:14;98404.85;;;5.74;100.00
64628;BME280;68467;50.960;0.314;2023-03-23T07:03:41;98416.51;;;5.93;100.00
64628;BME280;68467;50.960;0.314;2023-03-23T07:06:09;98422.32;;;6.02;100.00
64628;BME280;68467;50.960;0.314;2023-03-23T07:08:37;98422.58;;;5.88;100.00
64628;BME280;68467;50.960;0.314;2023-03-23T07:11:04;98422.07;;;5.99;100.00
64628;BME280;68467;50.960;0.314;2023-03-23T07:13:32;98429.35;;;5.94;100.00
64628;BME280;68467;50.960;0.314;2023-03-23T07:16:00;98431.76;;;6.06;100.00
64628;BME280;68467;50.960;0.314;2023-03-23T07:18:27;98430.28;;;6.04;100.00
64628;BME280;68467;50.960;0.314;2023-03-23T07:20:54;98422.35;;;6.46;100.00
64628;BME280;68467;50.960;0.314;2023-03-23T07:23:21;98412.24;;;6.19;100.00
64628;BME280;68467;50.960;0.314;2023-03-23T07:25:49;98422.72;;;5.96;100.00
64628;BME280;68467;50.960;0.314;2023-03-23T07:28:17;98422.27;;;5.91;100.00
64628;BME280;68467;50.960;0.314;2023-03-23T07:30:44;98424.05;;;5.88;100.00
64628;BME280;68467;50.960;0.314;2023-03-23T07:33:12;98419.17;;;6.31;100.00
64628;BME280;68467;50.960;0.314;2023-03-23T07:35:40;98418.65;;;6.12;100.00
64628;BME280;68467;50.960;0.314;2023-03-23T07:38:07;98421.02;;;6.35;100.00
64628;BME280;68467;50.960;0.314;2023-03-23T07:40:35;98410.90;;;5.83;100.00
64628;BME280;68467;50.960;0.314;2023-03-23T07:43:03;98406.76;;;6.32;100.00
64628;BME280;68467;50.960;0.314;2023-03-23T07:45:31;98409.91;;;6.16;100.00
64628;BME280;68467;50.960;0.314;2023-03-23T07:47:58;98427.59;;;6.27;100.00
64628;BME280;68467;50.960;0.314;2023-03-23T07:50:26;98430.63;;;6.30;100.00
64628;BME280;68467;50.960;0.314;2023-03-23T07:52:54;98432.56;;;6.75;100.00
64628;BME280;68467;50.960;0.314;2023-03-23T07:55:23;98431.96;;;6.38;100.00
64628;BME280;68467;50.960;0.314;2023-03-23T07:57:52;98444.87;;;6.32;100.00
64628;BME280;68467;50.960;0.314;2023-03-23T08:00:21;98451.73;;;6.34;100.00
64628;BME280;68467;50.960;0.314;2023-03-23T08:02:50;98443.56;;;6.39;100.00
64628;BME280;68467;50.960;0.314;2023-03-23T08:05:19;98459.29;;;6.73;100.00
64628;BME280;68467;50.960;0.314;2023-03-23T08:07:47;98459.75;;;6.79;100.00
64628;BME280;68467;50.960;0.314;2023-03-23T08:10:15;98453.29;;;6.60;100.00
64628;BME280;68467;50.960;0.314;2023-03-23T08:12:43;98470.22;;;6.39;100.00
64628;BME280;68467;50.960;0.314;2023-03-23T08:15:12;98468.07;;;6.24;100.00
64628;BME280;68467;50.960;0.314;2023-03-23T08:17:41;98464.37;;;6.55;100.00
64628;BME280;68467;50.960;0.314;2023-03-23T08:20:09;98461.06;;;6.83;100.00
64628;BME280;68467;50.960;0.314;2023-03-23T08:22:37;98463.31;;;6.28;100.00
64628;BME280;68467;50.960;0.314;2023-03-23T08:25:06;98470.84;;;6.40;100.00
64628;BME280;68467;50.960;0.314;2023-03-23T08:27:35;98465.90;;;6.31;100.00
64628;BME280;68467;50.960;0.314;2023-03-23T08:30:03;98475.01;;;6.43;100.00
64628;BME280;68467;50.960;0.314;2023-03-23T08:32:31;98469.96;;;6.24;100.00
64628;BME280;68467;50.960;0.314;2023-03-23T08:34:58;98478.03;;;6.58;100.00
64628;BME280;68467;50.960;0.314;2023-03-23T08:37:25;98462.71;;;6.43;100.00
64628;BME280;68467;50.960;0.314;2023-03-23T08:39:53;98474.04;;;6.38;100.00
64628;BME280;68467;50.960;0.314;2023-03-23T08:42:22;98478.28;;;6.70;100.00
64628;BME280;68467;50.960;0.314;2023-03-23T08:44:49;98477.89;;;6.20;100.00
64628;BME280;68467;50.960;0.314;2023-03-23T08:47:17;98479.89;;;6.72;100.00
64628;BME280;68467;50.960;0.314;2023-03-23T08:49:44;98499.00;;;6.59;100.00
64628;BME280;68467;50.960;0.314;2023-03-23T08:52:11;98490.36;;;7.00;100.00
64628;BME280;68467;50.960;0.314;2023-03-23T08:54:43;98483.27;;;6.81;100.00
64628;BME280;68467;50.960;0.314;2023-03-23T08:57:10;98495.01;;;7.19;100.00
64628;BME280;68467;50.960;0.314;2023-03-23T08:59:37;98480.37;;;7.16;100.00
64628;BME280;68467;50.960;0.314;2023-03-23T09:02:04;98486.55;;;7.19;100.00
64628;BME280;68467;50.960;0.314;2023-03-23T09:04:31;98493.95;;;7.35;100.00
64628;BME280;68467;50.960;0.314;2023-03-23T09:06:58;98481.81;;;6.98;100.00
64628;BME280;68467;50.960;0.314;2023-03-23T09:09:25;98494.35;;;6.82;100.00
64628;BME280;68467;50.960;0.314;2023-03-23T09:11:53;98481.38;;;7.10;100.00
64628;BME280;68467;50.960;0.314;2023-03-23T09:14:20;98475.85;;;7.36;100.00
64628;BME280;68467;50.960;0.314;2023-03-23T09:16:47;98489.53;;;7.27;100.00
64628;BME280;68467;50.960;0.314;2023-03-23T09:19:14;98490.63;;;7.09;100.00
64628;BME280;68467;50.960;0.314;2023-03-23T09:21:41;98491.11;;;7.55;100.00
64628;BME280;68467;50.960;0.314;2023-03-23T09:24:08;98484.04;;;7.80;100.00
64628;BME280;68467;50.960;0.314;2023-03-23T09:26:35;98481.65;;;7.59;100.00
64628;BME280;68467;50.960;0.314;2023-03-23T09:29:02;98488.62;;;7.87;100.00
64628;BME280;68467;50.960;0.314;2023-03-23T09:31:30;98484.97;;;8.14;100.00
64628;BME280;68467;50.960;0.314;2023-03-23T09:33:57;98486.72;;;7.50;100.00
64628;BME280;68467;50.960;0.314;2023-03-23T09:36:25;98472.56;;;7.92;100.00
64628;BME280;68467;50.960;0.314;2023-03-23T09:38:52;98476.96;;;7.69;100.00
64628;BME280;68467;50.960;0.314;2023-03-23T09:41:38;98474.78;;;7.68;100.00
64628;BME280;68467;50.960;0.314;2023-03-23T09:44:17;98455.63;;;7.45;100.00
64628;BME280;68467;50.960;0.314;2023-03-23T09:46:56;98479.12;;;7.52;100.00
64628;BME280;68467;50.960;0.314;2023-03-23T09:49:28;98497.75;;;7.39;100.00
64628;BME280;68467;50.960;0.314;2023-03-23T09:51:59;98482.72;;;7.32;100.00
64628;BME280;68467;50.960;0.314;2023-03-23T09:54:33;98489.44;;;7.44;100.00
64628;BME280;68467;50.960;0.314;2023-03-23T09:57:02;98474.80;;;7.59;100.00
64628;BME280;68467;50.960;0.314;2023-03-23T09:59:34;98477.03;;;7.63;100.00
64628;BME280;68467;50.960;0.314;2023-03-23T10:02:11;98467.31;;;8.03;100.00
64628;BME280;68467;50.960;0.314;2023-03-23T10:04:44;98469.32;;;8.58;100.00
64628;BME280;68467;50.960;0.314;2023-03-23T10:07:14;98479.30;;;8.10;100.00
64628;BME280;68467;50.960;0.314;2023-03-23T10:09:42;98484.74;;;8.39;100.00
64628;BME280;68467;50.960;0.314;2023-03-23T10:12:20;98475.67;;;8.10;100.00
64628;BME280;68467;50.960;0.314;2023-03-23T10:14:59;98468.47;;;8.12;100.00
64628;BME280;68467;50.960;0.314;2023-03-23T10:17:32;98463.43;;;8.29;100.00
64628;BME280;68467;50.960;0.314;2023-03-23T10:20:13;98469.27;;;8.27;100.00
64628;BME280;68467;50.960;0.314;2023-03-23T10:22:49;98467.35;;;7.97;100.00
64628;BME280;68467;50.960;0.314;2023-03-23T10:25:22;98462.88;;;8.01;100.00
64628;BME280;68467;50.960;0.314;2023-03-23T10:27:57;98472.96;;;7.79;100.00
64628;BME280;68467;50.960;0.314;2023-03-23T10:30:30;98473.69;;;8.15;100.00
64628;BME280;68467;50.960;0.314;2023-03-23T10:33:02;98480.90;;;8.39;100.00
64628;BME280;68467;50.960;0.314;2023-03-23T10:35:33;98471.42;;;8.50;100.00
64628;BME280;68467;50.960;0.314;2023-03-23T10:38:06;98466.70;;;9.04;100.00
64628;BME280;68467;50.960;0.314;2023-03-23T10:40:47;98476.62;;;8.88;100.00
64628;BME280;68467;50.960;0.314;2023-03-23T10:43:15;98467.83;;;8.41;100.00
64628;BME280;68467;50.960;0.314;2023-03-23T10:45:44;98472.42;;;8.71;100.00
64628;BME280;68467;50.960;0.314;2023-03-23T10:48:15;98473.40;;;8.63;100.00
64628;BME280;68467;50.960;0.314;2023-03-23T10:50:46;98471.20;;;8.73;100.00
64628;BME280;68467;50.960;0.314;2023-03-23T10:53:18;98475.28;;;8.52;100.00
64628;BME280;68467;50.960;0.314;2023-03-23T10:55:47;98474.36;;;8.35;100.00
64628;BME280;68467;50.960;0.314;2023-03-23T10:58:23;98468.11;;;8.58;100.00
64628;BME280;68467;50.960;0.314;2023-03-23T11:00:51;98484.07;;;8.55;100.00
64628;BME280;68467;50.960;0.314;2023-03-23T11:03:25;98467.17;;;9.29;100.00
64628;BME280;68467;50.960;0.314;2023-03-23T11:05:56;98467.66;;;9.15;100.00
64628;BME280;68467;50.960;0.314;2023-03-23T11:08:25;98470.43;;;9.08;100.00
64628;BME280;68467;50.960;0.314;2023-03-23T11:10:55;98467.63;;;9.46;100.00
64628;BME280;68467;50.960;0.314;2023-03-23T11:13:27;98463.79;;;9.33;100.00
64628;BME280;68467;50.960;0.314;2023-03-23T11:15:54;98463.70;;;9.77;100.00
64628;BME280;68467;50.960;0.314;2023-03-23T11:18:24;98483.95;;;9.28;100.00
64628;BME280;68467;50.960;0.314;2023-03-23T11:20:55;98481.98;;;9.06;100.00
64628;BME280;68467;50.960;0.314;2023-03-23T11:23:25;98477.96;;;9.21;100.00
64628;BME280;68467;50.960;0.314;2023-03-23T11:25:58;98488.43;;;9.60;100.00
64628;BME280;68467;50.960;0.314;2023-03-23T11:28:30;98483.17;;;9.95;100.00
64628;BME280;68467;50.960;0.314;2023-03-23T11:31:00;98485.50;;;9.81;100.00
64628;BME280;68467;50.960;0.314;2023-03-23T11:33:30;98481.42;;;10.24;100.00
64628;BME280;68467;50.960;0.314;2023-03-23T11:35:57;98481.76;;;10.26;100.00
64628;BME280;68467;50.960;0.314;2023-03-23T11:38:25;98472.47;;;10.38;100.00
64628;BME280;68467;50.960;0.314;2023-03-23T11:40:52;98477.80;;;10.26;100.00
64628;BME280;68467;50.960;0.314;2023-03-23T11:43:21;98485.89;;;10.64;100.00
64628;BME280;68467;50.960;0.314;2023-03-23T11:45:54;98473.32;;;9.59;100.00
64628;BME280;68467;50.960;0.314;2023-03-23T11:48:28;98481.61;;;9.83;100.00
64628;BME280;68467;50.960;0.314;2023-03-23T11:51:02;98480.66;;;10.01;100.00
64628;BME280;68467;50.960;0.314;2023-03-23T11:53:42;98475.79;;;9.94;100.00
64628;BME280;68467;50.960;0.314;2023-03-23T11:56:17;98468.16;;;10.34;100.00
64628;BME280;68467;50.960;0.314;2023-03-23T11:58:46;98473.30;;;9.51;100.00
64628;BME280;68467;50.960;0.314;2023-03-23T12:01:23;98470.13;;;9.86;100.00
64628;BME280;68467;50.960;0.314;2023-03-23T12:04:00;98479.47;;;9.77;100.00
64628;BME280;68467;50.960;0.314;2023-03-23T12:06:36;98447.24;;;10.48;100.00
64628;BME280;68467;50.960;0.314;2023-03-23T12:09:17;98465.19;;;9.82;100.00
64628;BME280;68467;50.960;0.314;2023-03-23T12:11:56;98463.59;;;10.17;100.00
64628;BME280;68467;50.960;0.314;2023-03-23T12:14:33;98463.89;;;10.06;100.00
64628;BME280;68467;50.960;0.314;2023-03-23T12:17:16;98464.26;;;10.32;100.00
64628;BME280;68467;50.960;0.314;2023-03-23T12:19:54;98456.30;;;9.86;100.00
64628;BME280;68467;50.960;0.314;2023-03-23T12:22:34;98432.29;;;10.38;100.00
64628;BME280;68467;50.960;0.314;2023-03-23T12:25:15;98443.55;;;10.24;100.00
64628;BME280;68467;50.960;0.314;2023-03-23T12:27:49;98431.11;;;10.45;100.00
64628;BME280;68467;50.960;0.314;2023-03-23T12:30:28;98431.41;;;10.66;100.00
64628;BME280;68467;50.960;0.314;2023-03-23T12:33:10;98428.90;;;10.69;100.00
64628;BME280;68467;50.960;0.314;2023-03-23T12:35:49;98411.59;;;10.88;100.00
64628;BME280;68467;50.960;0.314;2023-03-23T12:38:30;98420.30;;;10.30;100.00
64628;BME280;68467;50.960;0.314;2023-03-23T12:41:07;98442.37;;;10.55;100.00
64628;BME280;68467;50.960;0.314;2023-03-23T12:43:47;98447.58;;;10.22;100.00
64628;BME280;68467;50.960;0.314;2023-03-23T12:46:24;98457.33;;;10.00;100.00
64628;BME280;68467;50.960;0.314;2023-03-23T12:48:57;98483.50;;;9.33;100.00
64628;BME280;68467;50.960;0.314;2023-03-23T12:51:31;98471.55;;;9.24;100.00
64628;BME280;68467;50.960;0.314;2023-03-23T12:54:07;98468.82;;;9.17;100.00
64628;BME280;68467;50.960;0.314;2023-03-23T12:56:41;98466.29;;;8.98;100.00
64628;BME280;68467;50.960;0.314;2023-03-23T12:59:15;98471.19;;;8.61;100.00
64628;BME280;68467;50.960;0.314;2023-03-23T13:01:47;98457.85;;;8.58;100.00
64628;BME280;68467;50.960;0.314;2023-03-23T13:04:20;98436.95;;;8.93;100.00
64628;BME280;68467;50.960;0.314;2023-03-23T13:06:49;98447.15;;;8.60;100.00
64628;BME280;68467;50.960;0.314;2023-03-23T13:09:19;98441.56;;;8.55;100.00
64628;BME280;68467;50.960;0.314;2023-03-23T13:11:54;98443.08;;;8.90;100.00
64628;BME280;68467;50.960;0.314;2023-03-23T13:14:31;98445.79;;;8.17;100.00
64628;BME280;68467;50.960;0.314;2023-03-23T13:17:07;98434.78;;;8.48;100.00